METAR Data
IDs: Format: Raw Decoded Include TAF

Data at: 1320 UTC 26 Feb 2021

LSMM 261250Z 26005KT 230V330 CAVOK 13/00 Q1029 RMK BLU